createdAt,value
2019-04-22T00:01:32.354Z,6.58
2019-04-22T00:04:07.003Z,6.67
2019-04-22T00:06:56.085Z,6.60
2019-04-22T00:09:24.006Z,6.54
2019-04-22T00:12:03.908Z,6.54
2019-04-22T00:14:24.529Z,6.56
2019-04-22T00:16:58.831Z,6.52
2019-04-22T00:19:29.135Z,6.58
2019-04-22T00:22:03.250Z,6.62
2019-04-22T00:24:32.118Z,6.65
2019-04-22T00:27:06.711Z,6.59
2019-04-22T00:29:50.231Z,6.53
2019-04-22T00:32:01.994Z,6.39
2019-04-22T00:34:27.041Z,6.32
2019-04-22T00:37:00.913Z,6.26
2019-04-22T00:39:46.327Z,6.21
2019-04-22T00:42:10.064Z,6.16
2019-04-22T00:44:40.312Z,6.13
2019-04-22T00:47:07.501Z,6.05
2019-04-22T00:50:09.263Z,6.02
2019-04-22T00:52:09.783Z,6.04
2019-04-22T00:54:37.422Z,6.14
2019-04-22T00:57:08.716Z,6.15
2019-04-22T00:59:42.843Z,6.21
2019-04-22T01:02:15.275Z,6.20
2019-04-22T01:04:40.922Z,6.22
2019-04-22T01:07:13.018Z,6.27
2019-04-22T01:09:44.593Z,6.27
2019-04-22T01:12:13.588Z,6.25
2019-04-22T01:14:41.721Z,6.25
2019-04-22T01:17:12.122Z,6.25
2019-04-22T01:19:52.898Z,6.15
2019-04-22T01:22:17.709Z,6.01
2019-04-22T01:24:38.678Z,5.87
2019-04-22T01:27:10.517Z,5.79
2019-04-22T01:29:42.429Z,5.77
2019-04-22T01:31:58.327Z,5.78
2019-04-22T01:34:44.918Z,5.69
2019-04-22T01:37:21.789Z,5.64
2019-04-22T01:39:57.025Z,5.61
2019-04-22T01:42:24.602Z,5.54
2019-04-22T01:44:50.957Z,5.58
2019-04-22T01:47:25.075Z,5.51
2019-04-22T01:49:57.929Z,5.45
2019-04-22T01:52:20.400Z,5.41
2019-04-22T01:54:55.618Z,5.36
2019-04-22T01:57:23.959Z,5.46
2019-04-22T01:59:51.974Z,5.40
2019-04-22T02:02:30.342Z,5.37
2019-04-22T02:04:59.853Z,5.40
2019-04-22T02:07:32.377Z,5.45
2019-04-22T02:09:56.095Z,5.39
2019-04-22T02:12:33.651Z,5.29
2019-04-22T02:14:57.642Z,5.23
2019-04-22T02:17:46.130Z,5.27
2019-04-22T02:20:09.285Z,5.21
2019-04-22T02:22:51.087Z,5.13
2019-04-22T02:25:13.486Z,5.19
2019-04-22T02:27:43.420Z,5.23
2019-04-22T02:30:12.233Z,5.16
2019-04-22T02:32:49.557Z,5.21
2019-04-22T02:35:11.108Z,5.15
2019-04-22T02:37:35.372Z,5.21
2019-04-22T02:40:14.543Z,5.29
2019-04-22T02:42:32.398Z,5.26
2019-04-22T02:45:07.150Z,5.30
2019-04-22T02:47:59.261Z,5.31
2019-04-22T02:50:10.627Z,5.15
2019-04-22T02:57:39.770Z,5.00
2019-04-22T03:00:21.458Z,5.11
2019-04-22T03:03:11.408Z,5.08
2019-04-22T03:05:19.420Z,5.17
2019-04-22T03:07:50.768Z,5.22
2019-04-22T03:10:20.445Z,5.14
2019-04-22T03:12:48.966Z,5.07
2019-04-22T03:15:16.534Z,5.02
2019-04-22T03:17:49.470Z,5.03
2019-04-22T03:22:47.611Z,4.97
2019-04-22T03:40:30.439Z,4.82
2019-04-22T03:45:26.480Z,4.84
2019-04-22T03:52:56.505Z,5.56
2019-04-22T03:55:25.715Z,5.98
2019-04-22T03:57:53.967Z,6.53
2019-04-22T04:03:04.672Z,7.67
2019-04-22T04:12:56.673Z,10.10
2019-04-22T04:15:26.622Z,10.72
2019-04-22T04:33:01.929Z,14.25
2019-04-22T04:35:44.160Z,14.79
2019-04-22T04:40:35.955Z,15.74
2019-04-22T04:45:40.580Z,16.03
2019-04-22T04:48:00.852Z,16.32
2019-04-22T04:50:26.752Z,16.77
2019-04-22T04:55:28.500Z,16.94
2019-04-22T05:03:15.608Z,17.25
2019-04-22T05:05:31.736Z,17.43
2019-04-22T05:18:06.531Z,17.01
2019-04-22T05:20:44.891Z,16.70
2019-04-22T05:23:01.239Z,17.49
2019-04-22T05:25:28.568Z,17.39
2019-04-22T05:27:58.998Z,18.54
2019-04-22T05:33:02.999Z,19.79
2019-04-22T05:35:30.924Z,19.99
2019-04-22T05:38:09.715Z,19.68
2019-04-22T05:40:30.728Z,19.55
2019-04-22T05:42:56.477Z,19.85
2019-04-22T05:45:35.335Z,19.78
2019-04-22T05:48:08.036Z,20.19
2019-04-22T05:50:40.190Z,19.57
2019-04-22T05:53:14.886Z,19.78
2019-04-22T05:55:43.034Z,19.93
2019-04-22T05:58:08.665Z,20.74
2019-04-22T06:01:03.959Z,21.00
2019-04-22T06:03:12.363Z,20.25
2019-04-22T06:05:41.653Z,20.75
2019-04-22T06:08:11.904Z,21.30
2019-04-22T06:10:47.088Z,20.77
2019-04-22T06:13:13.833Z,18.77
2019-04-22T06:15:40.500Z,19.88
2019-04-22T06:18:22.803Z,19.37
2019-04-22T06:23:30.702Z,18.62
2019-04-22T06:26:07.994Z,17.57
2019-04-22T06:28:31.851Z,18.16
2019-04-22T06:31:08.530Z,18.25
2019-04-22T06:35:56.333Z,18.72
2019-04-22T06:41:02.832Z,18.07
2019-04-22T06:43:25.879Z,19.00
2019-04-22T06:45:51.746Z,19.90
2019-04-22T06:48:27.941Z,20.74
2019-04-22T06:50:56.913Z,20.68
2019-04-22T06:53:31.387Z,20.71
2019-04-22T06:56:14.335Z,21.14
2019-04-22T06:58:28.923Z,21.57
2019-04-22T07:00:54.744Z,21.35
2019-04-22T07:06:00.243Z,21.06
2019-04-22T07:08:59.608Z,21.27
2019-04-22T07:10:58.286Z,21.49
2019-04-22T07:13:34.665Z,20.23
2019-04-22T07:16:00.169Z,20.84
2019-04-22T07:18:36.081Z,21.62
2019-04-22T07:21:01.235Z,21.81
2019-04-22T07:23:37.143Z,22.20
2019-04-22T07:26:02.583Z,21.94
2019-04-22T07:31:05.035Z,19.37
2019-04-22T07:36:23.491Z,18.92
2019-04-22T07:41:00.098Z,19.55
2019-04-22T07:46:00.560Z,21.12
2019-04-22T07:48:33.495Z,21.79
2019-04-22T07:53:34.311Z,21.22
2019-04-22T07:56:06.340Z,22.00
2019-04-22T07:58:35.547Z,19.76
2019-04-22T08:01:09.075Z,19.46
2019-04-22T08:03:49.969Z,20.05
2019-04-22T08:06:12.325Z,18.87
2019-04-22T08:08:37.312Z,20.34
2019-04-22T08:11:22.431Z,21.38
2019-04-22T08:13:34.196Z,21.33
2019-04-22T08:16:10.596Z,21.46
2019-04-22T08:18:59.870Z,21.38
2019-04-22T08:21:09.275Z,21.19
2019-04-22T08:23:46.399Z,21.52
2019-04-22T08:26:06.005Z,20.75
2019-04-22T08:28:47.452Z,20.03
2019-04-22T08:31:14.529Z,21.00
2019-04-22T08:33:39.753Z,21.20
2019-04-22T08:38:47.079Z,21.39
2019-04-22T08:41:28.961Z,22.00
2019-04-22T08:43:57.922Z,20.13
2019-04-22T08:46:30.261Z,19.79
2019-04-22T08:48:57.672Z,20.35
2019-04-22T08:51:25.100Z,20.78
2019-04-22T08:54:00.117Z,21.08
2019-04-22T08:56:32.440Z,20.08
2019-04-22T08:59:07.042Z,19.75
2019-04-22T09:01:27.061Z,20.71
2019-04-22T09:03:58.595Z,21.71
2019-04-22T09:09:01.213Z,20.24
2019-04-22T09:11:35.603Z,20.20
2019-04-22T09:14:01.694Z,20.54
2019-04-22T09:16:42.747Z,20.73
2019-04-22T09:18:59.260Z,20.72
2019-04-22T09:21:35.890Z,19.95
2019-04-22T09:24:06.835Z,19.06
2019-04-22T09:26:36.046Z,19.78
2019-04-22T09:29:05.036Z,19.02
2019-04-22T09:31:28.953Z,18.82
2019-04-22T09:33:59.014Z,18.92
2019-04-22T09:36:33.752Z,18.90
2019-04-22T09:39:06.353Z,18.85
2019-04-22T09:44:19.083Z,19.27
2019-04-22T09:46:38.980Z,19.15
2019-04-22T09:51:36.951Z,18.22
2019-04-22T09:56:37.326Z,18.58
2019-04-22T09:59:07.757Z,19.03
2019-04-22T10:01:38.692Z,18.68
2019-04-22T10:04:06.888Z,18.72
2019-04-22T10:11:37.703Z,19.55
2019-04-22T10:14:28.397Z,18.45
2019-04-22T10:19:11.026Z,18.81
2019-04-22T10:21:44.803Z,19.49
2019-04-22T10:24:10.554Z,19.77
2019-04-22T10:26:46.963Z,19.46
2019-04-22T10:29:14.067Z,19.05
2019-04-22T10:31:55.564Z,19.58
2019-04-22T10:34:02.633Z,19.94
2019-04-22T10:36:17.315Z,20.18
2019-04-22T10:38:46.546Z,19.92
2019-04-22T10:41:16.466Z,19.51
2019-04-22T10:43:45.406Z,19.77
2019-04-22T10:46:14.172Z,20.43
2019-04-22T10:48:44.159Z,20.84
2019-04-22T10:51:12.860Z,20.29
2019-04-22T10:53:41.758Z,20.70
2019-04-22T10:56:10.368Z,19.81
2019-04-22T10:58:40.352Z,19.38
2019-04-22T11:01:09.648Z,19.53
2019-04-22T11:03:39.494Z,19.97
2019-04-22T11:06:09.665Z,20.33
2019-04-22T11:08:45.897Z,20.84
2019-04-22T11:11:22.898Z,21.13
2019-04-22T11:13:39.884Z,21.19
2019-04-22T11:16:09.767Z,21.40
2019-04-22T11:18:38.567Z,21.54
2019-04-22T11:21:07.552Z,21.48
2019-04-22T11:23:36.538Z,21.07
2019-04-22T11:26:06.271Z,21.23
2019-04-22T11:28:35.850Z,21.15
2019-04-22T11:31:06.218Z,21.43
2019-04-22T11:33:36.145Z,21.36
2019-04-22T11:38:33.032Z,21.08
2019-04-22T11:41:03.470Z,21.14
2019-04-22T11:43:32.342Z,21.25
2019-04-22T11:46:01.231Z,21.22
2019-04-22T11:48:31.153Z,21.18
2019-04-22T11:51:00.194Z,20.98
2019-04-22T11:53:29.063Z,20.85
2019-04-22T11:55:58.329Z,20.53
2019-04-22T11:58:28.704Z,20.29
2019-04-22T12:00:59.182Z,20.54
2019-04-22T12:03:28.655Z,20.47
2019-04-22T12:05:57.902Z,20.10
2019-04-22T12:08:27.129Z,20.46
2019-04-22T12:11:00.095Z,20.71
2019-04-22T12:13:26.286Z,20.87
2019-04-22T12:15:55.511Z,21.13
2019-04-22T12:18:24.944Z,20.94
2019-04-22T12:20:55.232Z,20.64
2019-04-22T12:23:25.158Z,20.99
2019-04-22T12:26:01.855Z,21.48
2019-04-22T12:28:24.756Z,21.90
2019-04-22T12:30:53.628Z,22.18
2019-04-22T12:33:23.470Z,22.15
2019-04-22T12:35:52.808Z,22.31
2019-04-22T12:38:22.154Z,22.61
2019-04-22T12:40:56.623Z,22.90
2019-04-22T12:43:23.909Z,23.35
2019-04-22T12:45:52.134Z,23.12
2019-04-22T12:48:21.353Z,22.60
2019-04-22T12:50:52.716Z,21.98
2019-04-22T12:53:24.304Z,22.19
2019-04-22T12:55:53.755Z,21.93
2019-04-22T12:58:21.300Z,22.16
2019-04-22T13:00:51.385Z,21.96
2019-04-22T13:03:20.467Z,21.09
2019-04-22T13:05:49.556Z,20.89
2019-04-22T13:08:18.258Z,21.10
2019-04-22T13:10:55.458Z,21.12
2019-04-22T13:13:18.781Z,21.53
2019-04-22T13:15:48.933Z,21.38
2019-04-22T13:18:27.646Z,21.53
2019-04-22T13:20:48.662Z,21.56
2019-04-22T13:23:18.050Z,21.90
2019-04-22T13:25:47.261Z,22.15
2019-04-22T13:28:16.073Z,22.75
2019-04-22T13:30:46.433Z,23.22
2019-04-22T13:33:16.722Z,23.36
2019-04-22T13:35:45.895Z,23.57
2019-04-22T13:38:15.229Z,23.59
2019-04-22T13:40:59.222Z,23.22
2019-04-22T13:43:16.751Z,23.02
2019-04-22T13:45:45.757Z,21.95
2019-04-22T13:48:31.152Z,21.58
2019-04-22T13:51:15.117Z,21.08
2019-04-22T13:56:07.440Z,20.28
2019-04-22T13:58:32.618Z,20.18
2019-04-22T14:00:46.851Z,20.36
2019-04-22T14:03:35.666Z,20.51
2019-04-22T14:06:06.878Z,19.97
2019-04-22T14:08:37.459Z,19.65
2019-04-22T14:11:16.937Z,19.78
2019-04-22T14:13:37.733Z,19.95
2019-04-22T14:16:07.161Z,20.14
2019-04-22T14:18:37.033Z,19.58
2019-04-22T14:21:06.941Z,19.55
2019-04-22T14:23:35.638Z,19.87
2019-04-22T14:26:05.205Z,20.06
2019-04-22T14:28:35.491Z,20.19
2019-04-22T14:31:04.514Z,20.11
2019-04-22T14:33:34.144Z,20.28
2019-04-22T14:36:04.660Z,20.56
2019-04-22T14:38:34.720Z,20.36
2019-04-22T14:41:05.761Z,20.22
2019-04-22T14:44:23.302Z,19.54
2019-04-22T14:46:36.455Z,19.32
2019-04-22T14:48:56.054Z,19.43
2019-04-22T14:51:25.532Z,18.69
2019-04-22T14:53:56.579Z,18.58
2019-04-22T14:56:08.341Z,18.55
2019-04-22T14:58:37.436Z,18.53
2019-04-22T15:01:07.001Z,18.50
2019-04-22T15:03:39.927Z,18.41
2019-04-22T15:06:06.509Z,18.44
2019-04-22T15:08:37.183Z,18.53
2019-04-22T15:11:06.386Z,18.39
2019-04-22T15:13:35.657Z,18.05
2019-04-22T15:16:18.362Z,18.04
2019-04-22T15:18:49.564Z,18.00
2019-04-22T15:21:20.664Z,18.10
2019-04-22T15:23:50.774Z,18.10
2019-04-22T15:26:20.347Z,17.93
2019-04-22T15:28:49.371Z,17.87
2019-04-22T15:31:19.452Z,17.91
2019-04-22T15:33:50.212Z,17.72
2019-04-22T15:36:18.354Z,17.59
2019-04-22T15:38:47.209Z,17.39
2019-04-22T15:41:16.674Z,17.41
2019-04-22T15:43:45.728Z,17.45
2019-04-22T15:46:15.800Z,17.45
2019-04-22T15:48:44.416Z,17.19
2019-04-22T15:51:13.181Z,17.08
2019-04-22T15:53:43.042Z,16.94
2019-04-22T15:56:12.629Z,16.93
2019-04-22T15:58:41.920Z,16.94
2019-04-22T16:01:17.751Z,16.84
2019-04-22T16:03:41.050Z,16.71
2019-04-22T16:06:10.174Z,16.73
2019-04-22T16:08:41.027Z,16.75
2019-04-22T16:11:09.823Z,16.71
2019-04-22T16:13:40.014Z,16.67
2019-04-22T16:16:10.235Z,16.66
2019-04-22T16:18:40.308Z,16.67
2019-04-22T16:21:09.104Z,16.50
2019-04-22T16:23:58.462Z,16.38
2019-04-22T16:26:42.391Z,16.26
2019-04-22T16:29:13.521Z,16.23
2019-04-22T16:31:43.028Z,16.25
2019-04-22T16:34:13.306Z,16.11
2019-04-22T16:36:42.834Z,16.06
2019-04-22T16:39:13.225Z,16.03
2019-04-22T16:41:42.579Z,15.91
2019-04-22T16:44:12.323Z,15.88
2019-04-22T16:46:41.696Z,15.82
2019-04-22T16:49:11.706Z,15.73
2019-04-22T16:51:40.425Z,15.71
2019-04-22T16:54:09.307Z,15.60
2019-04-22T16:56:39.564Z,15.51
2019-04-22T16:59:08.879Z,15.48
2019-04-22T17:01:43.127Z,15.46
2019-04-22T17:04:14.524Z,15.42
2019-04-22T17:06:48.023Z,15.44
2019-04-22T17:09:17.753Z,15.39
2019-04-22T17:11:47.938Z,15.40
2019-04-22T17:14:23.997Z,15.28
2019-04-22T17:16:48.428Z,15.26
2019-04-22T17:19:17.410Z,15.18
2019-04-22T17:21:47.570Z,15.15
2019-04-22T17:24:17.462Z,15.04
2019-04-22T17:26:46.466Z,15.04
2019-04-22T17:29:16.670Z,14.98
2019-04-22T17:31:50.972Z,14.93
2019-04-22T17:34:15.964Z,14.89
2019-04-22T17:36:46.251Z,14.75
2019-04-22T17:39:30.157Z,14.66
2019-04-22T17:42:03.501Z,14.61
2019-04-22T17:45:01.054Z,14.59
2019-04-22T17:47:13.576Z,14.52
2019-04-22T17:49:54.084Z,14.44
2019-04-22T17:54:50.575Z,14.34
2019-04-22T17:57:21.709Z,14.35
2019-04-22T17:59:51.918Z,14.26
2019-04-22T18:02:22.567Z,14.22
2019-04-22T18:04:40.197Z,14.20
2019-04-22T18:07:31.239Z,14.13
2019-04-22T18:12:35.721Z,14.06
2019-04-22T18:14:59.496Z,14.04
2019-04-22T18:17:32.399Z,14.05
2019-04-22T18:19:54.687Z,14.01
2019-04-22T18:22:19.759Z,13.96
2019-04-22T18:24:52.935Z,13.91
2019-04-22T18:27:43.818Z,13.85
2019-04-22T18:29:51.510Z,13.83
2019-04-22T18:32:17.646Z,13.78
2019-04-22T18:34:51.579Z,13.76
2019-04-22T18:37:19.856Z,13.73
2019-04-22T18:39:56.886Z,13.72
2019-04-22T18:42:24.374Z,13.66
2019-04-22T18:45:20.114Z,13.64
2019-04-22T18:47:24.879Z,13.62
2019-04-22T18:49:56.634Z,13.60
2019-04-22T18:52:40.238Z,13.56
2019-04-22T18:55:07.206Z,13.54
2019-04-22T18:57:53.468Z,13.50
2019-04-22T19:00:12.224Z,13.50
2019-04-22T19:02:50.765Z,13.45
2019-04-22T19:05:25.117Z,13.44
2019-04-22T19:08:16.763Z,13.40
2019-04-22T19:10:46.302Z,13.36
2019-04-22T19:13:37.639Z,13.31
2019-04-22T19:15:36.817Z,13.31
2019-04-22T19:19:22.397Z,13.28
2019-04-22T19:21:35.501Z,13.26
2019-04-22T19:24:03.125Z,13.18
2019-04-22T19:26:46.038Z,13.16
2019-04-22T19:29:03.343Z,13.14
2019-04-22T19:31:28.647Z,13.11
2019-04-22T19:34:06.211Z,13.09
2019-04-22T19:36:32.338Z,13.05
2019-04-22T19:38:58.936Z,13.03
2019-04-22T19:41:36.769Z,12.98
2019-04-22T19:44:05.582Z,12.95
2019-04-22T19:46:35.448Z,12.92
2019-04-22T19:49:12.131Z,12.88
2019-04-22T19:51:47.643Z,12.81
2019-04-22T19:57:08.209Z,12.69
2019-04-22T19:59:37.089Z,12.65
2019-04-22T20:02:27.091Z,12.60
2019-04-22T20:05:09.291Z,12.56
2019-04-22T20:07:40.537Z,12.52
2019-04-22T20:10:16.174Z,12.47
2019-04-22T20:12:39.708Z,12.42
2019-04-22T20:15:10.025Z,12.36
2019-04-22T20:18:07.505Z,12.31
2019-04-22T20:20:26.437Z,12.24
2019-04-22T20:22:43.170Z,12.20
2019-04-22T20:25:05.407Z,12.13
2019-04-22T20:27:50.190Z,12.09
2019-04-22T20:30:17.378Z,12.07
2019-04-22T20:32:47.889Z,11.98
2019-04-22T20:35:20.904Z,11.97
2019-04-22T20:37:50.943Z,11.92
2019-04-22T20:40:21.443Z,11.88
2019-04-22T20:42:55.193Z,11.83
2019-04-22T20:45:25.164Z,11.81
2019-04-22T20:47:43.998Z,11.76
2019-04-22T20:50:21.812Z,11.78
2019-04-22T20:52:54.973Z,11.79
2019-04-22T20:55:16.322Z,11.67
2019-04-22T20:57:53.335Z,11.61
2019-04-22T21:00:15.156Z,11.62
2019-04-22T21:02:45.430Z,11.61
2019-04-22T21:05:14.556Z,11.51
2019-04-22T21:07:49.887Z,11.50
2019-04-22T21:10:19.885Z,11.48
2019-04-22T21:12:41.961Z,11.39
2019-04-22T21:15:28.481Z,11.35
2019-04-22T21:17:53.363Z,11.28
2019-04-22T21:20:34.820Z,11.22
2019-04-22T21:23:00.141Z,11.21
2019-04-22T21:25:23.968Z,11.16
2019-04-22T21:28:04.552Z,11.14
2019-04-22T21:30:34.244Z,11.10
2019-04-22T21:32:58.013Z,11.07
2019-04-22T21:35:47.285Z,11.04
2019-04-22T21:38:04.322Z,11.02
2019-04-22T21:40:36.103Z,10.96
2019-04-22T21:43:08.937Z,10.91
2019-04-22T21:45:23.892Z,10.88
2019-04-22T21:48:13.477Z,10.85
2019-04-22T21:53:07.032Z,10.83
2019-04-22T21:55:45.028Z,10.78
2019-04-22T21:58:12.531Z,10.86
2019-04-22T22:00:54.084Z,10.76
2019-04-22T22:03:17.780Z,10.70
2019-04-22T22:05:34.208Z,10.70
2019-04-22T22:08:21.588Z,10.72
2019-04-22T22:10:44.893Z,10.65
2019-04-22T22:13:10.952Z,10.65
2019-04-22T22:15:45.108Z,10.61
2019-04-22T22:18:10.270Z,10.58
2019-04-22T22:21:02.213Z,10.61
2019-04-22T22:23:28.010Z,10.61
2019-04-22T22:25:44.151Z,10.53
2019-04-22T22:28:33.420Z,10.50
2019-04-22T22:30:58.164Z,10.45
2019-04-22T22:33:17.049Z,10.44
2019-04-22T22:35:45.679Z,10.46
2019-04-22T22:38:21.149Z,10.33
2019-04-22T22:40:34.135Z,10.27
2019-04-22T22:43:11.680Z,10.27
2019-04-22T22:45:39.489Z,10.25
2019-04-22T22:48:25.359Z,10.21
2019-04-22T22:50:50.894Z,10.17
2019-04-22T22:53:32.680Z,10.13
2019-04-22T22:55:52.125Z,10.15
2019-04-22T22:58:24.471Z,10.04
2019-04-22T23:00:50.504Z,10.00
2019-04-22T23:03:40.623Z,9.88
2019-04-22T23:05:57.248Z,9.87
2019-04-22T23:08:25.708Z,9.88
2019-04-22T23:11:00.721Z,9.89
2019-04-22T23:15:54.081Z,9.77
2019-04-22T23:18:07.713Z,9.70
2019-04-22T23:20:41.852Z,9.69
2019-04-22T23:23:25.664Z,9.72
2019-04-22T23:25:59.700Z,9.68
2019-04-22T23:28:39.726Z,9.62
2019-04-22T23:31:22.166Z,9.59
2019-04-22T23:33:57.239Z,9.63
2019-04-22T23:36:42.019Z,9.55
2019-04-22T23:39:15.764Z,9.54
2019-04-22T23:41:46.300Z,9.52
2019-04-22T23:46:50.358Z,9.46
2019-04-22T23:49:17.401Z,9.52
2019-04-22T23:52:02.713Z,9.55
2019-04-22T23:54:32.580Z,9.42
2019-04-22T23:56:53.978Z,9.33
2019-04-22T23:59:38.593Z,9.34
